Terminal Aerodrome Forecast
Issued by NWS

Current Version | Previous Version | Text Only | Print | Product List | Glossary Off
Versions: 1 2 3 4 5 6 7 8 9 10 11 12 13 14 15 16 17 18 19 20 21 22 23 24 25 26 27 28 29

820
FTUS41 KRNK 191023 AAE
TAFLWB
TAF AMD
KLWB 191023Z 1910/2006 30010G20KT P6SM -SHRA SCT015 OVC035
      TEMPO 1910/1912 4SM -SHRA OVC015
     FM191400 29016G26KT P6SM BKN040
     FM200200 30012G21KT P6SM SCT040=

USA.gov is the U.S. government's official web portal to all federal, state and local government web resources and services.